Time;durP1;ratioP1;P1;durP2;ratioP2;P2;SDS_P1;SDS_P2;PMS_P1;PMS_P2;Temp;Humidity;BMP_temperature;BMP_pressure;BME280_temperature;BME280_humidity;BME280_pressure;Samples;Min_cycle;Max_cycle;Signal;HPM_P1;HPM_P2
2021/09/13 00:01:59;;;;;;;11.33;10.23;;;;;;;17.05;71.62;100865.95;1652111;84;21112;-80
2021/09/13 00:04:25;;;;;;;10.72;9.83;;;;;;;17.04;71.66;100871.23;1652313;85;21040;-80
2021/09/13 00:06:52;;;;;;;11.10;9.98;;;;;;;17.03;71.68;100867.77;1635345;85;21077;-79
2021/09/13 00:09:18;;;;;;;11.40;10.38;;;;;;;17.01;71.73;100863.06;1618869;86;21060;-79
2021/09/13 00:11:44;;;;;;;11.60;10.40;;;;;;;17.01;71.77;100866.98;1619404;86;21559;-79
2021/09/13 00:14:11;;;;;;;11.57;10.48;;;;;;;17.00;71.79;100863.97;1673288;83;21136;-79
2021/09/13 00:16:37;;;;;;;11.22;10.23;;;;;;;16.97;71.80;100852.78;1672063;83;21077;-79
2021/09/13 00:19:04;;;;;;;10.25;9.20;;;;;;;16.94;71.83;100859.43;1688579;83;21505;-79
2021/09/13 00:21:30;;;;;;;12.05;11.03;;;;;;;16.88;71.84;100858.75;1676483;83;21020;-79
2021/09/13 00:23:56;;;;;;;9.78;8.85;;;;;;;16.84;71.89;100862.84;1679957;83;21077;-79
2021/09/13 00:26:23;;;;;;;9.80;8.88;;;;;;;16.79;71.90;100859.55;1671951;83;21112;-79
2021/09/13 00:28:49;;;;;;;10.28;9.38;;;;;;;16.74;71.95;100861.03;1653103;85;21629;-79
2021/09/13 00:31:16;;;;;;;10.45;9.55;;;;;;;16.71;71.99;100860.30;1654239;84;21582;-79
2021/09/13 00:33:44;;;;;;;10.80;9.80;;;;;;;16.67;72.01;100856.09;1644429;85;21084;-79
2021/09/13 00:36:10;;;;;;;11.12;10.15;;;;;;;16.62;72.02;100860.18;1640755;85;21077;-79
2021/09/13 00:38:36;;;;;;;10.00;9.10;;;;;;;16.59;72.06;100861.59;1658281;85;21126;-79
2021/09/13 00:41:03;;;;;;;11.22;10.18;;;;;;;16.54;72.11;100857.00;1626262;86;21619;-79
2021/09/13 00:43:30;;;;;;;9.50;8.70;;;;;;;16.51;72.11;100861.88;1635808;85;21084;-79
2021/09/13 00:48:32;;;;;;;8.80;8.00;;;;;;;16.47;72.11;100862.90;1811374;78;22709;-79
2021/09/13 00:50:58;;;;;;;9.95;7.53;;;;;;;16.39;72.18;100857.55;1779671;79;21576;-79
2021/09/13 00:53:25;;;;;;;8.13;7.30;;;;;;;16.33;72.16;100861.23;1766697;79;21248;-79
2021/09/13 00:55:54;;;;;;;7.67;7.00;;;;;;;16.29;72.20;100866.61;1774279;79;20901;-80
2021/09/13 00:58:23;;;;;;;7.17;6.58;;;;;;;16.24;72.24;100862.86;1781200;78;20902;-80
2021/09/13 01:00:49;;;;;;;6.80;5.65;;;;;;;16.21;72.28;100866.44;1781317;79;20910;-80
2021/09/13 01:03:16;;;;;;;6.15;5.65;;;;;;;16.19;72.32;100863.02;1764325;79;20898;-80
2021/09/13 01:05:42;;;;;;;7.10;6.28;;;;;;;16.17;72.39;100859.62;1731498;80;21308;-80
2021/09/13 01:08:09;;;;;;;7.62;6.92;;;;;;;16.17;72.43;100863.53;1745060;80;21401;-80
2021/09/13 01:10:36;;;;;;;7.03;6.35;;;;;;;16.17;72.47;100860.07;1700285;82;20902;-80
2021/09/13 01:13:02;;;;;;;7.70;7.08;;;;;;;16.18;72.55;100857.41;1704797;83;20980;-80
2021/09/13 01:15:28;;;;;;;7.20;6.60;;;;;;;16.18;72.58;100855.25;1704656;82;21411;-80
2021/09/13 01:17:55;;;;;;;7.25;6.53;;;;;;;16.18;72.58;100859.16;1700016;83;20883;-80
2021/09/13 01:20:22;;;;;;;6.85;6.25;;;;;;;16.18;72.60;100861.77;1704178;82;20901;-80
2021/09/13 01:22:52;;;;;;;7.10;6.60;;;;;;;16.17;72.62;100857.46;1705243;84;20906;-80
2021/09/13 01:25:19;;;;;;;8.90;7.95;;;;;;;16.15;72.67;100857.52;1707457;83;20954;-80
2021/09/13 01:27:45;;;;;;;9.18;8.25;;;;;;;16.16;72.71;100857.06;1700325;83;20989;-80
2021/09/13 01:30:12;;;;;;;9.50;8.70;;;;;;;16.15;72.75;100856.66;1686717;83;21434;-80
2021/09/13 01:32:39;;;;;;;9.00;8.20;;;;;;;16.15;72.78;100859.27;1688953;83;20920;-80
2021/09/13 01:35:07;;;;;;;8.68;7.92;;;;;;;16.15;72.79;100857.97;1698127;82;20887;-80
2021/09/13 01:37:33;;;;;;;9.78;8.88;;;;;;;16.14;72.84;100852.35;1704935;82;21325;-80
2021/09/13 01:39:59;;;;;;;9.10;8.30;;;;;;;16.13;72.80;100848.04;1704534;84;20942;-80
2021/09/13 01:42:26;;;;;;;8.78;7.97;;;;;;;16.10;72.85;100847.72;1693776;83;21156;-80
2021/09/13 01:44:52;;;;;;;8.65;7.85;;;;;;;16.09;72.85;100849.08;1705325;83;20875;-80
2021/09/13 01:47:18;;;;;;;9.20;8.40;;;;;;;16.05;72.87;100843.12;1695302;82;20943;-80
2021/09/13 01:49:45;;;;;;;9.10;8.20;;;;;;;16.02;72.92;100839.77;1720563;82;20937;-80
2021/09/13 01:52:11;;;;;;;10.43;9.33;;;;;;;16.00;72.93;100841.58;1720678;82;21024;-80
2021/09/13 01:54:37;;;;;;;8.80;7.87;;;;;;;15.98;73.02;100844.23;1708639;82;20997;-80
2021/09/13 01:57:04;;;;;;;8.43;7.65;;;;;;;15.96;72.98;100843.89;1709579;82;21038;-80
2021/09/13 01:59:30;;;;;;;9.20;8.33;;;;;;;15.93;73.05;100851.36;1716038;82;21568;-80
2021/09/13 02:01:57;;;;;;;9.58;8.78;;;;;;;15.92;73.05;100854.02;1747031;79;20965;-80
2021/09/13 02:04:23;;;;;;;9.98;9.18;;;;;;;15.90;73.11;100843.65;1753558;80;21013;-80
2021/09/13 02:06:49;;;;;;;10.28;9.25;;;;;;;15.88;73.15;100850.67;1709070;82;21003;-80
2021/09/13 02:09:16;;;;;;;9.75;8.83;;;;;;;15.85;73.16;100850.32;1751157;80;20973;-80
2021/09/13 02:11:42;;;;;;;9.78;8.78;;;;;;;15.83;73.23;100848.67;1739744;80;21536;-80
2021/09/13 02:14:09;;;;;;;10.28;9.10;;;;;;;15.81;73.27;100852.62;1738445;80;20950;-80
2021/09/13 02:16:35;;;;;;;10.60;9.60;;;;;;;15.81;73.29;100853.08;1749097;80;21052;-80
2021/09/13 02:19:01;;;;;;;10.10;9.10;;;;;;;15.80;73.29;100852.23;1737122;80;20981;-80
2021/09/13 02:21:28;;;;;;;9.85;9.05;;;;;;;15.78;73.32;100852.73;1737569;80;21060;-80
2021/09/13 02:23:54;;;;;;;7.78;7.08;;;;;;;15.76;73.31;100856.30;1738963;80;21484;-80
2021/09/13 02:26:20;;;;;;;10.30;9.05;;;;;;;15.72;73.30;100855.55;1718591;82;20985;-80
2021/09/13 02:28:47;;;;;;;;;;;;;;;15.68;73.39;100850.03;1714401;82;21275;-80
2021/09/13 02:31:14;;;;;;;10.78;9.43;;;;;;;15.68;73.74;100851.78;1700311;82;20183;-80
2021/09/13 02:33:40;;;;;;;9.78;8.98;;;;;;;15.67;73.51;100861.81;1743654;80;26470;-80
2021/09/13 02:36:06;;;;;;;9.75;8.80;;;;;;;15.67;73.56;100859.20;1688779;82;21069;-80
2021/09/13 02:38:33;;;;;;;17.23;9.30;;;;;;;15.67;73.62;100856.60;1679442;83;21045;-80
2021/09/13 02:40:59;;;;;;;4.92;4.53;;;;;;;15.67;73.58;100853.99;1706760;82;21112;-80
2021/09/13 02:43:26;;;;;;;4.17;3.87;;;;;;;15.65;73.53;100861.86;1747088;80;21025;-80
2021/09/13 02:45:53;;;;;;;5.12;4.72;;;;;;;15.60;73.14;100856.43;1743930;80;21756;-80
2021/09/13 02:48:19;;;;;;;;;;;;;;;15.54;73.48;100858.30;1746537;80;21001;-80
2021/09/13 02:50:46;;;;;;;5.62;5.12;;;;;;;15.50;73.71;100859.75;1740911;81;20492;-80
2021/09/13 02:53:12;;;;;;;7.42;6.58;;;;;;;15.44;73.54;100863.86;1746698;81;21037;-80
2021/09/13 02:55:38;;;;;;;8.73;7.93;;;;;;;15.40;73.61;100865.70;1740822;81;22180;-80
2021/09/13 02:58:05;;;;;;;8.25;7.62;;;;;;;15.38;73.74;100864.91;1742091;80;21368;-80
2021/09/13 03:00:31;;;;;;;8.78;8.08;;;;;;;15.37;73.76;100861.90;1728044;81;20997;-80
2021/09/13 03:02:57;;;;;;;10.23;9.23;;;;;;;15.37;73.74;100862.34;1699732;82;21033;-79
2021/09/13 03:05:24;;;;;;;8.90;8.17;;;;;;;15.37;73.81;100863.20;1703883;82;21508;-80
2021/09/13 03:07:50;;;;;;;7.87;7.08;;;;;;;15.36;73.78;100858.03;1691860;83;21229;-80
2021/09/13 03:10:17;;;;;;;7.50;6.90;;;;;;;15.34;73.79;100865.05;1701728;82;21101;-80
2021/09/13 03:12:43;;;;;;;7.90;7.30;;;;;;;15.32;73.81;100864.25;1745955;80;21120;-80
2021/09/13 03:15:11;;;;;;;7.05;6.42;;;;;;;15.31;73.86;100870.36;1702600;82;21540;-80
2021/09/13 03:17:37;;;;;;;5.40;4.97;;;;;;;15.30;73.93;100864.30;1700237;82;26621;-80
2021/09/13 03:20:05;;;;;;;5.50;5.10;;;;;;;15.29;73.90;100869.55;1681864;83;20989;-80
2021/09/13 03:22:31;;;;;;;6.08;5.58;;;;;;;15.25;73.89;100868.80;1695658;83;20978;-80
2021/09/13 03:24:58;;;;;;;5.97;5.47;;;;;;;15.22;73.89;100871.49;1688631;82;20934;-80
2021/09/13 03:27:24;;;;;;;8.20;7.55;;;;;;;15.18;73.93;100872.04;1692264;83;20943;-80
2021/09/13 03:29:50;;;;;;;7.62;6.92;;;;;;;15.17;73.96;100868.17;1695709;84;21012;-80
2021/09/13 03:32:24;;;;;;;7.45;6.83;;;;;;;15.15;74.01;100869.98;1673650;83;21005;-81
2021/09/13 03:34:51;;;;;;;8.13;7.33;;;;;;;15.12;74.05;100870.07;1697363;84;21021;-81
2021/09/13 03:37:17;;;;;;;7.50;6.90;;;;;;;15.12;74.09;100872.67;1696978;84;21506;-81
2021/09/13 03:39:44;;;;;;;6.40;5.90;;;;;;;15.10;74.11;100873.17;1687772;84;21616;-81
2021/09/13 03:42:10;;;;;;;7.42;6.90;;;;;;;15.06;74.10;100863.33;1682222;84;21513;-81
2021/09/13 03:44:36;;;;;;;8.00;7.35;;;;;;;15.06;74.14;100871.59;1697521;84;20986;-81
2021/09/13 03:47:03;;;;;;;10.43;9.40;;;;;;;15.04;74.16;100872.94;1696082;83;21038;-81
2021/09/13 03:49:31;;;;;;;10.18;9.28;;;;;;;15.04;74.20;100868.18;1737585;81;21004;-81
2021/09/13 03:51:57;;;;;;;;;;;;;;;15.05;74.23;100871.19;1749580;81;21485;-81
2021/09/13 03:54:24;;;;;;;8.18;7.42;;;;;;;15.03;74.46;100870.38;1738312;81;25436;-81
2021/09/13 03:56:51;;;;;;;7.40;6.70;;;;;;;14.99;74.21;100867.46;1701036;83;21027;-81
2021/09/13 03:59:17;;;;;;;5.25;4.85;;;;;;;14.96;74.26;100879.27;1735127;81;21128;-81
2021/09/13 04:01:45;;;;;;;5.62;5.10;;;;;;;14.94;74.31;100871.95;1749943;80;20997;-81
2021/09/13 04:04:13;;;;;;;5.20;4.42;;;;;;;14.94;74.37;100873.25;1755966;80;21450;-81
2021/09/13 04:06:46;;;;;;;6.55;5.95;;;;;;;14.93;74.37;100870.25;1747692;80;21044;-81
2021/09/13 04:12:04;;;;;;;9.08;8.18;;;;;;;14.90;74.40;100864.23;1751244;81;21595;-82
2021/09/13 04:14:31;;;;;;;10.08;9.10;;;;;;;14.89;74.43;100862.98;1746097;81;21032;-82
2021/09/13 04:16:58;;;;;;;10.40;9.50;;;;;;;14.88;74.46;100859.97;1686191;83;21488;-82
2021/09/13 04:19:24;;;;;;;13.28;10.72;;;;;;;14.87;74.51;100868.68;1711611;82;26419;-83
2021/09/13 04:21:53;;;;;;;11.63;10.48;;;;;;;14.86;74.61;100866.97;1733900;82;21620;-83
2021/09/13 04:24:23;;;;;;;9.25;8.58;;;;;;;14.87;74.60;100870.83;1730303;82;21644;-83
2021/09/13 04:26:49;;;;;;;10.98;10.03;;;;;;;14.88;74.59;100873.84;1707771;83;21593;-82
2021/09/13 04:29:17;;;;;;;12.47;11.43;;;;;;;14.87;74.62;100872.58;1692196;84;21602;-86
2021/09/13 04:31:44;;;;;;;8.58;7.65;;;;;;;14.87;74.71;100878.64;1691289;83;22197;-82
2021/09/13 04:34:11;;;;;;;8.15;7.45;;;;;;;14.87;74.66;100873.44;1708473;82;21563;-84
2021/09/13 04:36:37;;;;;;;9.03;8.03;;;;;;;14.85;74.62;100872.62;1708786;83;21623;-84
2021/09/13 04:39:03;;;;;;;10.03;9.13;;;;;;;14.83;74.63;100880.08;1674444;84;21041;-83
2021/09/13 04:41:30;;;;;;;10.50;9.60;;;;;;;14.82;74.69;100878.38;1697171;84;22202;-83
2021/09/13 04:43:56;;;;;;;12.50;11.20;;;;;;;14.81;74.71;100884.48;1696898;84;21026;-83
2021/09/13 04:46:33;;;;;;;10.00;9.08;;;;;;;14.81;74.82;100880.57;1696266;83;21456;-83
2021/09/13 04:49:00;;;;;;;9.70;8.83;;;;;;;14.83;74.80;100880.08;1696021;83;21526;-83
2021/09/13 04:51:27;;;;;;;8.85;7.72;;;;;;;14.82;74.80;100880.53;1696881;84;22165;-83
2021/09/13 04:53:53;;;;;;;;;;;;;;;14.81;74.80;100885.33;1699179;84;20868;-83
2021/09/13 04:56:21;;;;;;;8.83;8.03;;;;;;;14.80;75.13;100882.32;1672307;84;20400;-83
2021/09/13 04:58:47;;;;;;;11.12;9.83;;;;;;;14.80;74.92;100884.07;1669109;84;21549;-83
2021/09/13 05:01:13;;;;;;;10.43;9.53;;;;;;;14.81;75.00;100885.33;1669173;84;21568;-83
2021/09/13 05:03:42;;;;;;;10.30;9.38;;;;;;;14.85;75.08;100886.95;1684326;83;21493;-84
2021/09/13 05:06:09;;;;;;;10.08;9.05;;;;;;;14.89;75.05;100893.77;1689068;83;20994;-83
2021/09/13 05:08:35;;;;;;;9.65;8.78;;;;;;;14.93;75.10;100894.53;1686318;83;25081;-83
2021/09/13 05:11:03;;;;;;;8.98;8.18;;;;;;;14.97;75.13;100890.09;1701330;83;22126;-83
2021/09/13 05:13:29;;;;;;;9.75;8.95;;;;;;;15.01;75.17;100895.16;1690393;83;21106;-83
2021/09/13 05:15:56;;;;;;;10.72;9.73;;;;;;;15.05;75.19;100894.17;1696713;84;21483;-83
2021/09/13 05:18:22;;;;;;;10.95;10.03;;;;;;;15.11;75.23;100897.02;1689402;84;21037;-83
2021/09/13 05:20:48;;;;;;;13.80;11.75;;;;;;;15.17;75.28;100896.83;1693343;84;21506;-83
2021/09/13 05:23:15;;;;;;;10.70;9.80;;;;;;;15.24;75.35;100907.02;1696592;84;21039;-83
2021/09/13 05:25:41;;;;;;;11.35;10.38;;;;;;;15.32;75.38;100895.51;1670238;84;20997;-84
2021/09/13 05:28:09;;;;;;;8.93;8.25;;;;;;;15.40;75.41;100907.85;1667714;85;21050;-84
2021/09/13 05:30:35;;;;;;;10.50;9.50;;;;;;;15.49;75.44;100905.81;1668732;85;21065;-84
2021/09/13 05:33:01;;;;;;;12.68;9.45;;;;;;;15.58;75.44;100902.55;1679068;83;21530;-84
2021/09/13 05:35:37;;;;;;;11.18;10.08;;;;;;;15.65;75.47;100901.42;1697083;83;21111;-84
2021/09/13 05:38:03;;;;;;;14.10;12.65;;;;;;;15.77;75.57;100904.94;1703079;83;21057;-84
2021/09/13 05:40:30;;;;;;;17.98;14.65;;;;;;;15.87;75.59;100902.42;1695082;84;21599;-84
2021/09/13 05:42:59;;;;;;;17.60;15.70;;;;;;;15.98;75.62;100907.28;1697838;83;21072;-84
2021/09/13 05:45:25;;;;;;;20.15;14.95;;;;;;;16.08;75.67;100907.38;1685734;84;21109;-84
2021/09/13 05:47:51;;;;;;;16.07;14.33;;;;;;;16.18;75.74;100916.11;1691274;83;21446;-84
2021/09/13 05:50:18;;;;;;;14.77;13.37;;;;;;;16.28;75.71;100911.43;1681853;83;21398;-84
2021/09/13 05:52:44;;;;;;;16.02;13.98;;;;;;;16.39;75.83;100911.91;1667255;82;416572;-83
2021/09/13 05:55:12;;;;;;;14.30;12.93;;;;;;;16.47;75.80;100913.80;1671343;84;21041;-83
2021/09/13 05:57:39;;;;;;;14.70;13.30;;;;;;;16.57;75.80;100917.39;1668228;85;21077;-83
2021/09/13 06:00:06;;;;;;;14.28;12.88;;;;;;;16.63;75.84;100913.25;1654981;85;21081;-83
2021/09/13 06:02:32;;;;;;;13.55;12.35;;;;;;;16.72;75.86;100916.84;1664833;84;21061;-84
2021/09/13 06:04:59;;;;;;;15.13;12.23;;;;;;;16.80;75.78;100923.94;1662690;84;20997;-83
2021/09/13 06:07:26;;;;;;;13.83;12.43;;;;;;;16.82;75.82;100923.43;1643582;85;21137;-83
2021/09/13 06:09:52;;;;;;;;;;;;;;;16.91;75.91;100927.46;1651948;85;21129;-85
2021/09/13 06:12:18;;;;;;;14.13;12.63;;;;;;;17.03;76.17;100930.47;1643237;87;20249;-84
2021/09/13 06:14:45;;;;;;;12.90;11.63;;;;;;;17.11;75.94;100926.27;1643712;85;21081;-84
2021/09/13 06:17:18;;;;;;;12.47;11.43;;;;;;;17.27;76.01;100931.73;1643220;85;21060;-84
2021/09/13 06:19:46;;;;;;;12.75;11.55;;;;;;;17.44;76.06;100929.31;1643344;85;21021;-84
2021/09/13 06:22:13;;;;;;;11.90;10.85;;;;;;;17.67;76.08;100925.37;1658121;85;21002;-84
2021/09/13 06:24:39;;;;;;;11.22;10.20;;;;;;;17.95;76.14;100921.59;1663991;85;21423;-84
2021/09/13 06:27:07;;;;;;;11.38;10.38;;;;;;;18.11;75.88;100923.97;1621565;86;21517;-84
2021/09/13 06:29:36;;;;;;;10.78;9.85;;;;;;;18.18;75.87;100928.88;1650569;85;21050;-84
2021/09/13 06:32:03;;;;;;;10.55;9.55;;;;;;;18.26;75.84;100936.38;1648209;85;21042;-84
2021/09/13 06:34:30;;;;;;;9.58;8.78;;;;;;;18.31;75.77;100936.18;1652283;85;21098;-84
2021/09/13 06:36:57;;;;;;;9.73;8.98;;;;;;;18.34;75.78;100932.97;1650739;86;21121;-84
2021/09/13 06:39:24;;;;;;;10.45;9.55;;;;;;;18.34;75.77;100939.98;1653996;85;26996;-84
2021/09/13 06:41:50;;;;;;;10.43;9.18;;;;;;;18.32;75.70;100938.73;1709419;83;21040;-84
2021/09/13 06:44:21;;;;;;;9.60;8.75;;;;;;;18.41;75.89;100936.18;1709262;83;21048;-84
2021/09/13 06:46:49;;;;;;;8.73;7.80;;;;;;;18.57;75.91;100937.67;1708273;83;21048;-84
2021/09/13 06:49:14;;;;;;;10.10;8.85;;;;;;;18.76;75.95;100934.18;1700962;83;20971;-84
2021/09/13 06:51:40;;;;;;;8.38;7.65;;;;;;;19.05;76.01;100933.33;1716359;82;20987;-84
2021/09/13 06:54:07;;;;;;;8.30;7.50;;;;;;;19.18;75.77;100933.16;1716445;82;21059;-84
2021/09/13 06:56:34;;;;;;;9.13;7.53;;;;;;;19.28;75.72;100938.78;1709978;82;21035;-84
2021/09/13 06:59:00;;;;;;;8.78;7.37;;;;;;;19.49;75.85;100941.25;1702250;82;21052;-84
2021/09/13 07:01:28;;;;;;;7.75;7.08;;;;;;;19.65;75.60;100940.09;1723550;82;21441;-84
2021/09/13 07:04:01;;;;;;;7.53;6.60;;;;;;;19.71;75.53;100942.41;1721638;82;21024;-84
2021/09/13 07:06:30;;;;;;;6.95;6.35;;;;;;;19.89;75.67;100940.63;1713443;82;28162;-84
2021/09/13 07:08:57;;;;;;;9.43;4.97;;;;;;;20.13;75.60;100951.23;1714457;82;21314;-84
2021/09/13 07:11:24;;;;;;;;;;;;;;;20.45;75.51;100947.44;1714298;82;21127;-84
2021/09/13 07:13:50;;;;;;;4.83;4.40;;;;;;;20.69;74.91;100954.52;1708815;82;20136;-84
2021/09/13 07:16:17;;;;;;;4.97;4.58;;;;;;;21.00;75.36;100954.55;1713207;82;21111;-84
2021/09/13 07:18:43;;;;;;;5.10;4.70;;;;;;;21.37;75.34;100958.66;1711179;82;21079;-84
2021/09/13 07:21:09;;;;;;;5.08;4.22;;;;;;;21.69;75.16;100958.19;1707640;82;21087;-84
2021/09/13 07:23:36;;;;;;;4.87;4.47;;;;;;;21.78;74.90;100960.76;1716309;82;21043;-84
2021/09/13 07:26:02;;;;;;;4.20;3.80;;;;;;;21.67;74.74;100961.84;1713722;82;21072;-84
2021/09/13 07:28:28;;;;;;;4.00;3.70;;;;;;;21.59;74.87;100955.69;1708701;82;21113;-84
2021/09/13 07:30:55;;;;;;;4.12;3.80;;;;;;;21.96;75.44;100957.05;1716033;82;21055;-84
2021/09/13 07:33:22;;;;;;;7.17;3.50;;;;;;;22.42;75.32;100963.10;1712509;82;21111;-84
2021/09/13 07:35:48;;;;;;;3.15;2.95;;;;;;;22.77;74.81;100955.70;1715923;82;21060;-84
2021/09/13 07:38:14;;;;;;;3.90;3.42;;;;;;;22.99;74.39;100960.50;1710992;82;21389;-84
2021/09/13 07:40:42;;;;;;;4.75;2.75;;;;;;;23.03;74.09;100958.05;1717443;82;21096;-84
2021/09/13 07:43:09;;;;;;;3.52;3.20;;;;;;;23.06;74.03;100959.18;1714414;82;21072;-84
2021/09/13 07:45:37;;;;;;;3.85;3.22;;;;;;;23.09;73.75;100958.98;1711907;82;21107;-84
2021/09/13 07:48:04;;;;;;;3.50;3.05;;;;;;;23.18;73.66;100960.67;1714578;82;21084;-84
2021/09/13 07:50:38;;;;;;;3.55;2.92;;;;;;;23.18;73.31;100958.88;1708912;82;21040;-84
2021/09/13 07:53:04;;;;;;;4.03;2.62;;;;;;;23.16;73.19;100960.77;1708677;82;21091;-84
2021/09/13 07:55:31;;;;;;;2.33;2.12;;;;;;;23.13;73.07;100960.97;1711877;82;21047;-84
2021/09/13 07:58:00;;;;;;;2.37;2.17;;;;;;;23.11;72.94;100970.77;1705419;82;21048;-84
2021/09/13 08:00:27;;;;;;;2.60;2.40;;;;;;;23.05;72.76;100972.00;1704279;82;21067;-84
2021/09/13 08:02:53;;;;;;;2.25;1.92;;;;;;;23.04;72.60;100970.77;1713312;82;21084;-83
2021/09/13 08:05:19;;;;;;;2.30;2.10;;;;;;;23.02;72.46;100968.23;1708796;82;21024;-83
2021/09/13 08:07:45;;;;;;;3.05;2.42;;;;;;;22.98;72.27;100968.04;1710622;82;21535;-83
2021/09/13 08:10:12;;;;;;;3.77;1.80;;;;;;;23.07;72.23;100976.70;1710069;82;21126;-83
2021/09/13 08:12:38;;;;;;;2.27;2.08;;;;;;;23.22;72.10;100977.54;1709195;82;26759;-83
2021/09/13 08:15:06;;;;;;;6.03;2.17;;;;;;;23.29;71.79;100980.17;1709544;82;21056;-83
2021/09/13 08:17:33;;;;;;;3.77;2.20;;;;;;;23.35;71.44;100977.14;1709426;82;21019;-83
2021/09/13 08:20:00;;;;;;;3.75;2.60;;;;;;;23.31;71.35;100984.88;1707184;83;21064;-83
2021/09/13 08:22:26;;;;;;;2.55;2.33;;;;;;;23.34;71.29;100979.87;1701753;83;21135;-84
2021/09/13 08:24:54;;;;;;;2.30;2.10;;;;;;;23.29;70.95;100992.05;1711624;83;21099;-84
2021/09/13 08:27:20;;;;;;;2.45;2.25;;;;;;;23.20;70.77;100984.70;1710131;82;21052;-84
2021/09/13 08:29:46;;;;;;;3.65;3.00;;;;;;;23.15;70.76;100988.09;1707752;83;21060;-84
2021/09/13 08:32:13;;;;;;;2.30;2.20;;;;;;;23.23;70.50;100993.75;1709007;82;21005;-84
2021/09/13 08:34:39;;;;;;;2.58;2.37;;;;;;;23.37;70.27;100991.56;1716586;81;21040;-84
2021/09/13 08:37:05;;;;;;;3.98;2.47;;;;;;;23.52;70.26;100994.52;1711652;82;21131;-84
2021/09/13 08:39:32;;;;;;;3.45;2.70;;;;;;;23.82;70.49;100994.84;1711366;82;21067;-84
2021/09/13 08:42:00;;;;;;;2.33;2.12;;;;;;;24.26;70.66;101000.69;1697837;82;21048;-83
2021/09/13 08:44:27;;;;;;;3.10;2.20;;;;;;;24.78;70.31;101007.70;1710986;82;21056;-83
2021/09/13 08:47:10;;;;;;;3.05;2.10;;;;;;;25.23;69.94;101006.29;1707961;83;21131;-83
2021/09/13 08:49:39;;;;;;;2.40;2.20;;;;;;;25.68;69.29;101003.95;1710275;82;21032;-83
2021/09/13 08:52:06;;;;;;;2.17;1.98;;;;;;;25.94;68.39;101008.66;1709937;83;21068;-83
2021/09/13 08:54:36;;;;;;;2.25;2.08;;;;;;;25.69;67.37;101008.28;1683445;83;21003;-83
2021/09/13 08:57:09;;;;;;;2.35;2.17;;;;;;;24.91;67.34;101010.34;1712227;83;20965;-83
2021/09/13 08:59:38;;;;;;;2.47;2.25;;;;;;;24.39;67.34;101012.14;1705849;83;20921;-83
2021/09/13 09:02:06;;;;;;;1.92;1.77;;;;;;;23.99;67.11;101008.61;1708819;83;21417;-83
2021/09/13 09:04:33;;;;;;;1.67;1.57;;;;;;;23.68;67.05;101008.47;1715518;82;20937;-83
2021/09/13 09:07:12;;;;;;;5.40;1.80;;;;;;;23.44;66.74;101014.80;1707184;83;20913;-83
2021/09/13 09:09:38;;;;;;;2.72;1.87;;;;;;;23.26;66.59;101015.98;1712260;83;20952;-83
2021/09/13 09:12:10;;;;;;;1.62;1.52;;;;;;;23.00;66.24;101018.91;1704167;83;20909;-83
2021/09/13 09:14:43;;;;;;;2.25;1.85;;;;;;;22.75;66.01;101016.91;1673846;83;20971;-83
2021/09/13 09:17:26;;;;;;;2.40;2.17;;;;;;;22.59;65.84;101016.59;1713140;83;20936;-83
2021/09/13 09:20:06;;;;;;;1.92;1.67;;;;;;;22.43;65.65;101017.50;1712842;83;20905;-83
2021/09/13 09:22:40;;;;;;;2.10;1.70;;;;;;;22.37;65.65;101021.81;1710176;83;20933;-83
2021/09/13 09:25:05;;;;;;;3.70;1.95;;;;;;;22.33;65.39;101018.16;1712031;83;20960;-83
2021/09/13 09:27:52;;;;;;;2.17;1.92;;;;;;;22.28;65.16;101017.58;1702538;83;20960;-83
2021/09/13 09:30:19;;;;;;;3.52;1.45;;;;;;;22.22;65.05;101018.78;1714225;83;20937;-83
2021/09/13 09:33:10;;;;;;;3.52;1.80;;;;;;;22.20;64.86;101025.93;1708303;82;20877;-83
2021/09/13 09:35:57;;;;;;;2.67;1.72;;;;;;;22.26;64.83;101022.09;1705697;83;20949;-83
2021/09/13 09:38:39;;;;;;;2.90;1.67;;;;;;;22.28;64.56;101025.02;1712623;82;20932;-83
2021/09/13 09:41:15;;;;;;;2.65;1.55;;;;;;;22.31;64.50;101022.20;1682250;83;20924;-83
2021/09/13 09:44:01;;;;;;;3.08;1.80;;;;;;;22.34;64.24;101015.44;1708346;83;20936;-83
2021/09/13 09:46:44;;;;;;;3.42;1.72;;;;;;;22.35;64.08;101013.66;1711485;83;20869;-83
2021/09/13 09:49:23;;;;;;;4.55;1.80;;;;;;;22.36;63.94;101016.16;1710145;83;21388;-83
2021/09/13 09:51:55;;;;;;;2.45;1.90;;;;;;;22.31;63.76;101015.62;1683965;84;21571;-83
2021/09/13 09:54:28;;;;;;;2.65;1.70;;;;;;;22.29;63.72;101019.28;1674372;84;20981;-83
2021/09/13 09:57:04;;;;;;;2.50;1.80;;;;;;;22.32;63.67;101019.95;1682001;84;20912;-83
2021/09/13 09:59:36;;;;;;;3.10;1.77;;;;;;;22.40;63.69;101016.83;1651776;85;21450;-83
2021/09/13 10:02:18;;;;;;;4.33;1.90;;;;;;;22.50;63.42;101021.09;1611687;86;20969;-83
2021/09/13 10:04:55;;;;;;;4.95;1.90;;;;;;;22.49;63.16;101020.25;1622692;86;20901;-83
2021/09/13 10:07:22;;;;;;;2.27;2.08;;;;;;;22.44;63.08;101023.16;1624909;86;20966;-83
2021/09/13 10:09:49;;;;;;;2.95;1.92;;;;;;;22.47;63.11;101030.03;1622105;86;21046;-83
2021/09/13 10:12:16;;;;;;;2.30;1.67;;;;;;;22.51;62.98;101031.55;1625408;86;28141;-83
2021/09/13 10:14:43;;;;;;;4.65;2.00;;;;;;;22.51;62.81;101026.75;1624179;86;20929;-83
2021/09/13 10:17:09;;;;;;;4.05;2.05;;;;;;;22.43;62.68;101029.83;1623934;86;20982;-83
2021/09/13 10:19:35;;;;;;;5.42;2.20;;;;;;;22.38;62.68;101031.41;1616607;86;21390;-83
2021/09/13 10:22:03;;;;;;;2.17;1.92;;;;;;;22.36;62.58;101028.02;1674832;84;20940;-83
2021/09/13 10:24:31;;;;;;;2.42;2.00;;;;;;;22.36;62.45;101034.61;1671829;84;20924;-83
2021/09/13 10:27:14;;;;;;;2.08;1.90;;;;;;;22.30;62.26;101035.47;1679053;84;20965;-83
2021/09/13 10:29:40;;;;;;;4.25;2.08;;;;;;;22.26;62.22;101037.90;1677489;84;21728;-83
2021/09/13 10:32:15;;;;;;;3.27;2.30;;;;;;;22.16;62.05;101041.53;1670085;84;20894;-83
2021/09/13 10:34:46;;;;;;;3.90;2.50;;;;;;;22.05;61.85;101036.87;1674399;84;20926;-83
2021/09/13 10:37:21;;;;;;;5.30;2.22;;;;;;;21.90;61.81;101037.70;1649024;85;20927;-83
2021/09/13 10:39:59;;;;;;;5.12;2.58;;;;;;;21.78;61.71;101043.22;1620627;86;21414;-83
2021/09/13 10:42:41;;;;;;;3.75;2.27;;;;;;;21.70;61.72;101040.16;1674030;83;20975;-83
2021/09/13 10:45:40;;;;;;;3.83;2.25;;;;;;;21.72;61.66;101031.72;1647023;85;20895;-83
2021/09/13 10:48:21;;;;;;;2.33;2.12;;;;;;;21.75;61.65;101034.64;1621105;88;21013;-83
2021/09/13 10:50:55;;;;;;;5.28;2.10;;;;;;;;;;1625659;85;21038;-83
2021/09/13 10:53:29;;;;;;;3.30;2.15;;;;;;;21.97;61.40;101035.11;1655288;85;20930;-83
2021/09/13 10:56:03;;;;;;;2.92;2.20;;;;;;;22.07;61.34;101033.68;1652235;85;20926;-84
2021/09/13 10:58:44;;;;;;;3.55;2.00;;;;;;;22.09;60.96;101034.44;1649598;85;20930;-83
2021/09/13 11:01:24;;;;;;;4.60;2.50;;;;;;;22.02;60.84;101039.68;1654839;86;20954;-83
2021/09/13 11:03:57;;;;;;;2.90;1.95;;;;;;;21.95;60.74;101036.13;1659138;85;20922;-83
2021/09/13 11:06:26;;;;;;;2.25;2.00;;;;;;;21.86;60.75;101032.70;1654680;85;20922;-83
2021/09/13 11:09:01;;;;;;;2.10;1.62;;;;;;;21.75;60.70;101028.91;1648413;85;20962;-83
2021/09/13 11:11:40;;;;;;;2.72;2.20;;;;;;;21.67;60.65;101035.06;1651822;85;20988;-83
2021/09/13 11:14:16;;;;;;;2.22;1.87;;;;;;;21.59;60.68;101038.59;1652816;85;21765;-83
2021/09/13 11:17:02;;;;;;;3.47;2.05;;;;;;;21.58;60.42;101030.31;1653466;85;21080;-83
2021/09/13 11:19:29;;;;;;;4.42;2.10;;;;;;;21.54;60.57;101035.36;1648456;85;20887;-83
2021/09/13 11:22:03;;;;;;;2.47;1.67;;;;;;;21.61;60.61;101031.92;1652436;85;20947;-83
2021/09/13 11:24:39;;;;;;;3.52;2.05;;;;;;;21.73;60.56;101034.73;1653304;85;20941;-83
2021/09/13 11:27:13;;;;;;;6.08;2.00;;;;;;;21.84;60.39;101033.25;1653016;85;21047;-83
2021/09/13 11:29:43;;;;;;;3.72;2.02;;;;;;;21.88;60.22;101029.51;1640765;85;21141;-83
2021/09/13 11:32:16;;;;;;;1.95;1.47;;;;;;;21.96;60.17;101032.56;1648332;85;20936;-83
2021/09/13 11:34:46;;;;;;;2.52;2.00;;;;;;;21.96;59.96;101032.09;1648181;85;20956;-83
2021/09/13 11:37:26;;;;;;;2.75;1.57;;;;;;;21.95;59.99;101034.34;1644449;85;20976;-83